Time,TemperatureF,DewpointF,PressureIn,WindDirection,WindDirectionDegrees,WindSpeedMPH,WindSpeedGustMPH,Humidity,HourlyPrecipIn,Conditions,Clouds,dailyrainin,SolarRadiationWatts/m^2,SoftwareType,DateUTC
2013-03-19 00:00:00,50.3,50.3,30.12,South,184,2.0,4.0,100,0.00,,,0.00,0001,Weather View 32 v70,2013-03-19 07:00:00,
2013-03-19 00:10:00,50.0,50.0,30.12,SSE,162,0.0,4.0,100,0.00,,,0.00,0002,Weather View 32 v70,2013-03-19 07:10:00,
2013-03-19 00:15:00,49.6,49.6,30.12,SE,139,0.0,4.0,100,0.00,,,0.00,0002,Weather View 32 v70,2013-03-19 07:15:00,
2013-03-19 00:20:00,49.2,49.2,30.11,WSW,252,0.0,4.0,100,0.00,,,0.00,0001,Weather View 32 v70,2013-03-19 07:20:00,
2013-03-19 00:25:00,48.9,48.9,30.11,West,274,0.0,4.0,100,0.00,,,0.00,0002,Weather View 32 v70,2013-03-19 07:25:00,
2013-03-19 00:30:00,48.7,48.7,30.11,WSW,252,1.0,4.0,100,0.00,,,0.00,0002,Weather View 32 v70,2013-03-19 07:30:00,
2013-03-19 00:40:00,48.4,48.4,30.12,SW,229,0.0,4.0,100,0.00,,,0.00,0001,Weather View 32 v70,2013-03-19 07:40:00,
2013-03-19 00:45:00,48.1,48.1,30.12,SSE,162,0.0,4.0,100,0.00,,,0.00,0002,Weather View 32 v70,2013-03-19 07:45:00,
2013-03-19 00:50:00,48.0,48.0,30.11,SW,229,0.0,4.0,100,0.00,,,0.00,0002,Weather View 32 v70,2013-03-19 07:50:00,
2013-03-19 00:55:00,47.6,47.6,30.11,West,274,0.0,4.0,100,0.00,,,0.00,0002,Weather View 32 v70,2013-03-19 07:55:00,
2013-03-19 01:05:00,47.3,47.3,30.11,South,184,0.0,3.0,100,0.00,,,0.00,0002,Weather View 32 v70,2013-03-19 08:05:00,
2013-03-19 01:10:00,47.0,47.0,30.11,South,184,0.0,3.0,100,0.00,,,0.00,0001,Weather View 32 v70,2013-03-19 08:10:00,
2013-03-19 01:15:00,46.9,46.9,30.12,South,184,0.0,3.0,100,0.00,,,0.00,0001,Weather View 32 v70,2013-03-19 08:15:00,
2013-03-19 01:20:00,46.5,46.5,30.12,South,184,0.0,3.0,100,0.00,,,0.00,0001,Weather View 32 v70,2013-03-19 08:20:00,
2013-03-19 01:30:00,46.6,46.6,30.12,SSW,207,0.0,3.0,100,0.00,,,0.00,0001,Weather View 32 v70,2013-03-19 08:30:00,
2013-03-19 01:35:00,46.7,46.7,30.12,SSW,207,0.0,1.0,100,0.00,,,0.00,0002,Weather View 32 v70,2013-03-19 08:35:00,
2013-03-19 01:40:00,46.6,46.6,30.12,SE,139,0.0,1.0,100,0.00,,,0.00,0002,Weather View 32 v70,2013-03-19 08:40:00,
2013-03-19 01:45:00,46.5,46.5,30.11,South,184,0.0,1.0,100,0.00,,,0.00,0002,Weather View 32 v70,2013-03-19 08:45:00,
2013-03-19 01:50:00,46.4,46.4,30.11,SSW,207,0.0,1.0,100,0.00,,,0.00,0001,Weather View 32 v70,2013-03-19 08:50:00,
2013-03-19 02:00:00,46.6,46.6,30.12,South,184,0.0,0.0,100,0.00,,,0.00,0001,Weather View 32 v70,2013-03-19 09:00:00,
2013-03-19 02:05:00,46.6,46.6,30.12,South,184,0.0,0.0,100,0.00,,,0.00,0001,Weather View 32 v70,2013-03-19 09:05:00,
2013-03-19 02:10:00,47.0,47.0,30.12,SE,139,0.0,0.0,100,0.00,,,0.00,0002,Weather View 32 v70,2013-03-19 09:10:00,
2013-03-19 02:20:00,47.4,47.4,30.12,SSE,162,0.0,0.0,100,0.00,,,0.00,0001,Weather View 32 v70,2013-03-19 09:20:00,
2013-03-19 02:25:00,47.6,47.6,30.12,SSW,207,0.0,0.0,100,0.00,,,0.00,0002,Weather View 32 v70,2013-03-19 09:25:00,
2013-03-19 02:30:00,47.9,47.9,30.12,SSE,162,0.0,0.0,100,0.00,,,0.00,0001,Weather View 32 v70,2013-03-19 09:30:00,
2013-03-19 02:35:00,48.1,48.1,30.12,SSE,162,0.0,0.0,100,0.00,,,0.00,0001,Weather View 32 v70,2013-03-19 09:35:00,
2013-03-19 02:45:00,48.5,48.5,30.12,ENE,72,0.0,0.0,100,0.00,,,0.00,0002,Weather View 32 v70,2013-03-19 09:45:00,
2013-03-19 02:50:00,48.6,48.6,30.12,South,184,0.0,0.0,100,0.00,,,0.00,0002,Weather View 32 v70,2013-03-19 09:50:00,
2013-03-19 02:55:00,48.6,48.6,30.12,SE,139,0.0,0.0,100,0.00,,,0.00,0001,Weather View 32 v70,2013-03-19 09:55:00,
2013-03-19 03:00:00,48.6,48.6,30.11,West,274,0.0,0.0,100,0.00,,,0.00,0002,Weather View 32 v70,2013-03-19 10:00:00,
2013-03-19 03:10:00,48.6,48.6,30.11,East,94,0.0,0.0,100,0.00,,,0.00,0001,Weather View 32 v70,2013-03-19 10:10:00,
2013-03-19 03:15:00,48.7,48.7,30.11,NNW,342,0.0,0.0,100,0.00,,,0.00,0001,Weather View 32 v70,2013-03-19 10:15:00,
2013-03-19 03:25:00,48.6,48.6,30.11,SE,139,0.0,0.0,100,0.00,,,0.00,0001,Weather View 32 v70,2013-03-19 10:25:00,
2013-03-19 03:35:00,48.6,48.6,30.11,South,184,0.0,0.0,100,0.00,,,0.00,0001,Weather View 32 v70,2013-03-19 10:35:00,
2013-03-19 03:40:00,48.6,48.6,30.11,SSE,162,0.0,0.0,100,0.00,,,0.00,0002,Weather View 32 v70,2013-03-19 10:40:00,
2013-03-19 03:45:00,48.6,48.6,30.10,South,184,0.0,0.0,100,0.00,,,0.00,0002,Weather View 32 v70,2013-03-19 10:45:00,
2013-03-19 03:50:00,48.6,48.6,30.10,SSW,207,0.0,0.0,100,0.00,,,0.00,0001,Weather View 32 v70,2013-03-19 10:50:00,
2013-03-19 04:00:00,48.5,48.5,30.10,South,184,0.0,0.0,100,0.00,,,0.00,0001,Weather View 32 v70,2013-03-19 11:00:00,
2013-03-19 04:05:00,48.5,48.5,30.10,South,184,0.0,0.0,100,0.00,,,0.00,0001,Weather View 32 v70,2013-03-19 11:05:00,
2013-03-19 04:10:00,48.4,48.4,30.10,South,184,0.0,0.0,100,0.00,,,0.00,0001,Weather View 32 v70,2013-03-19 11:10:00,
2013-03-19 04:15:00,48.4,48.4,30.09,SSW,207,0.0,0.0,100,0.00,,,0.00,0001,Weather View 32 v70,2013-03-19 11:15:00,
2013-03-19 04:25:00,48.3,48.3,30.09,SE,139,0.0,0.0,100,0.00,,,0.00,0002,Weather View 32 v70,2013-03-19 11:25:00,
2013-03-19 04:30:00,48.1,48.1,30.09,WSW,252,0.0,0.0,100,0.00,,,0.00,0002,Weather View 32 v70,2013-03-19 11:30:00,
2013-03-19 04:35:00,48.3,48.3,30.09,SSE,162,0.0,0.0,100,0.00,,,0.00,0002,Weather View 32 v70,2013-03-19 11:35:00,
2013-03-19 04:40:00,48.1,48.1,30.09,SSE,162,0.0,0.0,100,0.00,,,0.00,0001,Weather View 32 v70,2013-03-19 11:40:00,
2013-03-19 04:50:00,47.6,47.6,30.09,South,184,0.0,0.0,100,0.00,,,0.00,0002,Weather View 32 v70,2013-03-19 11:50:00,
2013-03-19 04:55:00,47.5,47.5,30.09,South,184,0.0,0.0,100,0.00,,,0.00,0002,Weather View 32 v70,2013-03-19 11:55:00,
2013-03-19 05:00:00,47.2,47.2,30.09,South,184,0.0,0.0,100,0.00,,,0.00,0001,Weather View 32 v70,2013-03-19 12:00:00,
2013-03-19 05:05:00,47.0,47.0,30.09,WSW,252,0.0,0.0,100,0.00,,,0.00,0001,Weather View 32 v70,2013-03-19 12:05:00,
2013-03-19 05:15:00,46.8,46.8,30.09,SSE,162,0.0,0.0,100,0.00,,,0.00,0001,Weather View 32 v70,2013-03-19 12:15:00,
2013-03-19 05:20:00,46.7,46.7,30.09,SSW,207,0.0,0.0,100,0.00,,,0.00,0001,Weather View 32 v70,2013-03-19 12:20:00,
2013-03-19 05:25:00,46.6,46.6,30.09,WSW,252,0.0,0.0,100,0.00,,,0.00,0001,Weather View 32 v70,2013-03-19 12:25:00,
2013-03-19 05:30:00,46.5,46.5,30.09,SSW,207,0.0,0.0,100,0.00,,,0.00,0002,Weather View 32 v70,2013-03-19 12:30:00,
2013-03-19 05:35:00,46.5,46.5,30.09,SSW,207,0.0,0.0,100,0.00,,,0.00,0001,Weather View 32 v70,2013-03-19 12:35:00,
2013-03-19 05:45:00,46.3,46.3,30.10,West,274,0.0,0.0,100,0.00,,,0.00,0001,Weather View 32 v70,2013-03-19 12:45:00,
2013-03-19 05:50:00,46.3,46.3,30.10,WSW,252,0.0,0.0,100,0.00,,,0.00,0001,Weather View 32 v70,2013-03-19 12:50:00,
2013-03-19 05:55:00,46.2,46.2,30.10,West,274,0.0,0.0,100,0.00,,,0.00,0001,Weather View 32 v70,2013-03-19 12:55:00,
2013-03-19 06:05:00,46.3,46.3,30.10,SSW,207,0.0,0.0,100,0.00,,,0.00,0001,Weather View 32 v70,2013-03-19 13:05:00,
2013-03-19 06:10:00,46.4,46.4,30.10,SSW,207,0.0,0.0,100,0.00,,,0.00,0001,Weather View 32 v70,2013-03-19 13:10:00,
2013-03-19 06:15:00,46.2,46.2,30.10,South,184,0.0,0.0,100,0.00,,,0.00,0001,Weather View 32 v70,2013-03-19 13:15:00,
2013-03-19 06:20:00,45.9,45.9,30.10,South,184,0.0,0.0,100,0.00,,,0.00,0001,Weather View 32 v70,2013-03-19 13:20:00,
2013-03-19 06:25:00,45.8,45.8,30.10,SSE,162,0.0,0.0,100,0.00,,,0.00,0001,Weather View 32 v70,2013-03-19 13:25:00,
2013-03-19 06:35:00,45.4,45.4,30.10,SSW,207,0.0,0.0,100,0.00,,,0.00,0001,Weather View 32 v70,2013-03-19 13:35:00,
2013-03-19 06:40:00,45.2,45.2,30.10,SSE,162,0.0,0.0,100,0.00,,,0.00,0001,Weather View 32 v70,2013-03-19 13:40:00,
2013-03-19 06:50:00,45.0,45.0,30.11,SSW,207,0.0,0.0,100,0.00,,,0.00,0002,Weather View 32 v70,2013-03-19 13:50:00,
2013-03-19 07:00:00,45.3,45.3,30.11,SSE,162,0.0,0.0,100,0.00,,,0.00,0002,Weather View 32 v70,2013-03-19 14:00:00,
2013-03-19 07:05:00,45.3,45.3,30.11,SSE,162,0.0,0.0,100,0.00,,,0.00,0005,Weather View 32 v70,2013-03-19 14:05:00,
2013-03-19 07:10:00,45.2,45.2,30.11,SSE,162,0.0,0.0,100,0.00,,,0.00,0006,Weather View 32 v70,2013-03-19 14:10:00,
2013-03-19 07:20:00,45.2,45.2,30.12,West,274,0.0,0.0,100,0.00,,,0.00,0017,Weather View 32 v70,2013-03-19 14:20:00,
2013-03-19 07:25:00,45.2,45.2,30.12,SW,229,0.0,0.0,100,0.00,,,0.00,0025,Weather View 32 v70,2013-03-19 14:25:00,
2013-03-19 07:30:00,45.2,45.2,30.12,SW,229,0.0,0.0,100,0.00,,,0.00,0036,Weather View 32 v70,2013-03-19 14:30:00,
2013-03-19 07:35:00,45.2,45.2,30.13,SW,229,0.0,0.0,100,0.00,,,0.00,0038,Weather View 32 v70,2013-03-19 14:35:00,
2013-03-19 07:40:00,45.1,45.1,30.13,SW,229,0.0,0.0,100,0.00,,,0.00,0043,Weather View 32 v70,2013-03-19 14:40:00,
2013-03-19 07:45:00,45.3,45.3,30.13,South,184,0.0,0.0,100,0.00,,,0.00,0055,Weather View 32 v70,2013-03-19 14:45:00,
2013-03-19 07:54:00,45.5,45.5,30.13,South,184,0.0,0.0,100,0.00,,,0.00,0072,Weather View 32 v70,2013-03-19 14:54:00,
2013-03-19 08:00:00,46.3,46.3,30.13,South,184,0.0,0.0,100,0.00,,,0.00,0087,Weather View 32 v70,2013-03-19 15:00:00,
2013-03-19 08:05:00,46.6,46.6,30.13,SSE,162,0.0,0.0,100,0.00,,,0.00,0107,Weather View 32 v70,2013-03-19 15:05:00,
2013-03-19 08:15:00,47.4,47.4,30.13,SSE,162,0.0,0.0,100,0.00,,,0.00,0147,Weather View 32 v70,2013-03-19 15:15:00,
2013-03-19 08:20:00,47.7,47.7,30.13,SE,139,0.0,0.0,100,0.00,,,0.00,0159,Weather View 32 v70,2013-03-19 15:20:00,
2013-03-19 08:30:00,48.3,48.3,30.14,SE,139,0.0,3.0,100,0.00,,,0.00,0181,Weather View 32 v70,2013-03-19 15:30:00,
2013-03-19 08:35:00,48.7,48.7,30.14,ESE,117,1.0,3.0,100,0.00,,,0.00,0212,Weather View 32 v70,2013-03-19 15:35:00,
2013-03-19 08:45:00,49.3,49.3,30.14,SE,139,0.0,3.0,100,0.00,,,0.00,0222,Weather View 32 v70,2013-03-19 15:45:00,
2013-03-19 08:50:00,49.7,49.7,30.14,ESE,117,2.0,3.0,100,0.00,,,0.00,0235,Weather View 32 v70,2013-03-19 15:50:00,
2013-03-19 08:55:00,50.2,50.2,30.14,SSE,162,0.0,3.0,100,0.00,,,0.00,0216,Weather View 32 v70,2013-03-19 15:55:00,
2013-03-19 09:05:00,50.9,50.9,30.14,SE,139,1.0,3.0,100,0.00,,,0.00,0243,Weather View 32 v70,2013-03-19 16:05:00,
2013-03-19 09:10:00,51.1,51.1,30.14,SSE,162,2.0,3.0,100,0.00,,,0.00,0265,Weather View 32 v70,2013-03-19 16:10:00,
2013-03-19 09:15:00,51.6,51.6,30.14,SSE,162,0.0,3.0,100,0.00,,,0.00,0283,Weather View 32 v70,2013-03-19 16:15:00,
2013-03-19 09:20:00,52.2,52.2,30.14,South,184,0.0,3.0,100,0.00,,,0.00,0297,Weather View 32 v70,2013-03-19 16:20:00,
2013-03-19 09:25:00,52.9,52.9,30.14,NNE,27,1.0,3.0,100,0.00,,,0.00,0274,Weather View 32 v70,2013-03-19 16:25:00,
2013-03-19 09:35:00,53.3,53.3,30.14,SSE,162,0.0,3.0,100,0.00,,,0.00,0310,Weather View 32 v70,2013-03-19 16:35:00,
2013-03-19 09:40:00,53.8,53.8,30.13,East,94,1.0,3.0,100,0.00,,,0.00,0317,Weather View 32 v70,2013-03-19 16:40:00,
2013-03-19 09:45:00,54.2,53.9,30.13,ESE,117,1.0,3.0,99,0.00,,,0.00,0349,Weather View 32 v70,2013-03-19 16:45:00,
2013-03-19 09:50:00,54.9,54.1,30.13,SE,139,0.0,3.0,97,0.00,,,0.00,0332,Weather View 32 v70,2013-03-19 16:50:00,
2013-03-19 09:55:00,55.5,54.1,30.13,SSW,207,1.0,3.0,95,0.00,,,0.00,0329,Weather View 32 v70,2013-03-19 16:55:00,
2013-03-19 10:05:00,55.7,52.8,30.13,ENE,72,1.0,3.0,90,0.00,,,0.00,0383,Weather View 32 v70,2013-03-19 17:05:00,
2013-03-19 10:10:00,56.7,53.5,30.13,SE,139,0.0,3.0,89,0.00,,,0.00,0422,Weather View 32 v70,2013-03-19 17:10:00,
2013-03-19 10:15:00,56.5,52.0,30.13,NE,49,1.0,3.0,85,0.00,,,0.00,0435,Weather View 32 v70,2013-03-19 17:15:00,
2013-03-19 10:20:00,56.9,51.4,30.13,NE,49,3.0,3.0,82,0.00,,,0.00,0430,Weather View 32 v70,2013-03-19 17:20:00,
2013-03-19 10:30:00,57.7,51.2,30.13,SW,229,1.0,4.0,79,0.00,,,0.00,0460,Weather View 32 v70,2013-03-19 17:30:00,
2013-03-19 10:35:00,58.0,51.2,30.13,North,4,2.0,4.0,78,0.00,,,0.00,0450,Weather View 32 v70,2013-03-19 17:35:00,
2013-03-19 10:40:00,58.7,51.8,30.13,ESE,117,0.0,4.0,78,0.00,,,0.00,0454,Weather View 32 v70,2013-03-19 17:40:00,
2013-03-19 10:45:00,59.4,52.5,30.13,South,184,1.0,4.0,78,0.00,,,0.00,0444,Weather View 32 v70,2013-03-19 17:45:00,
2013-03-19 10:50:00,59.8,52.2,30.13,West,274,1.0,4.0,76,0.00,,,0.00,0484,Weather View 32 v70,2013-03-19 17:50:00,
2013-03-19 10:56:00,60.5,52.9,30.13,SW,229,1.0,4.0,76,0.00,,,0.00,0503,Weather View 32 v70,2013-03-19 17:56:00,
2013-03-19 11:05:00,61.1,52.7,30.13,SE,139,2.0,5.0,74,0.00,,,0.00,0491,Weather View 32 v70,2013-03-19 18:05:00,
2013-03-19 11:10:00,61.6,53.2,30.13,SSE,162,3.0,5.0,74,0.00,,,0.00,0511,Weather View 32 v70,2013-03-19 18:10:00,
2013-03-19 11:15:00,61.9,53.1,30.12,SE,139,2.0,5.0,73,0.00,,,0.00,0490,Weather View 32 v70,2013-03-19 18:15:00,
2013-03-19 11:20:00,62.1,52.9,30.12,SE,139,4.0,6.0,72,0.00,,,0.00,0530,Weather View 32 v70,2013-03-19 18:20:00,
2013-03-19 11:30:00,62.6,53.4,30.12,South,184,3.0,6.0,72,0.00,,,0.00,0531,Weather View 32 v70,2013-03-19 18:30:00,
2013-03-19 11:40:00,63.3,53.3,30.12,SSW,207,4.0,6.0,70,0.00,,,0.00,0585,Weather View 32 v70,2013-03-19 18:40:00,
2013-03-19 11:45:00,64.1,54.1,30.12,SSW,207,1.0,7.0,70,0.00,,,0.00,0614,Weather View 32 v70,2013-03-19 18:45:00,
2013-03-19 11:50:00,64.8,54.4,30.12,ESE,117,2.0,7.0,69,0.00,,,0.00,0618,Weather View 32 v70,2013-03-19 18:50:00,
2013-03-19 11:57:00,65.2,54.3,30.12,SSW,207,3.0,7.0,68,0.00,,,0.00,0597,Weather View 32 v70,2013-03-19 18:57:00,
2013-03-19 12:05:00,65.5,53.8,30.12,South,184,3.0,7.0,66,0.00,,,0.00,0613,Weather View 32 v70,2013-03-19 19:05:00,
2013-03-19 12:10:00,66.4,55.1,30.12,SSE,162,2.0,7.0,67,0.00,,,0.00,0604,Weather View 32 v70,2013-03-19 19:10:00,
2013-03-19 12:15:00,66.5,54.3,30.12,SE,139,1.0,7.0,65,0.00,,,0.00,0556,Weather View 32 v70,2013-03-19 19:15:00,
2013-03-19 12:20:00,67.0,54.4,30.12,ESE,117,1.0,7.0,64,0.00,,,0.00,0608,Weather View 32 v70,2013-03-19 19:20:00,
2013-03-19 12:25:00,67.2,54.6,30.12,SE,139,3.0,7.0,64,0.00,,,0.00,0620,Weather View 32 v70,2013-03-19 19:25:00,
2013-03-19 12:30:00,67.5,54.4,30.12,SSE,162,2.0,7.0,63,0.00,,,0.00,0601,Weather View 32 v70,2013-03-19 19:30:00,
2013-03-19 12:40:00,68.7,55.6,30.11,SSW,207,3.0,7.0,63,0.00,,,0.00,0537,Weather View 32 v70,2013-03-19 19:40:00,
2013-03-19 12:45:00,68.8,55.2,30.11,SE,139,2.0,6.0,62,0.00,,,0.00,0521,Weather View 32 v70,2013-03-19 19:45:00,
2013-03-19 12:55:00,68.5,54.9,30.11,ESE,117,3.0,6.0,62,0.00,,,0.00,0530,Weather View 32 v70,2013-03-19 19:55:00,
2013-03-19 13:05:00,69.2,55.1,30.11,ESE,117,1.0,6.0,61,0.00,,,0.00,0566,Weather View 32 v70,2013-03-19 20:05:00,
2013-03-19 13:10:00,69.8,55.2,30.11,SE,139,1.0,5.0,60,0.00,,,0.00,0603,Weather View 32 v70,2013-03-19 20:10:00,
2013-03-19 13:15:00,70.4,55.8,30.11,SE,139,7.0,7.0,60,0.00,,,0.00,0562,Weather View 32 v70,2013-03-19 20:15:00,
2013-03-19 13:20:00,70.0,55.0,30.11,East,94,3.0,7.0,59,0.00,,,0.00,0485,Weather View 32 v70,2013-03-19 20:20:00,
2013-03-19 13:25:00,70.1,55.1,30.10,East,94,3.0,7.0,59,0.00,,,0.00,0545,Weather View 32 v70,2013-03-19 20:25:00,
2013-03-19 13:35:00,70.8,55.2,30.10,South,184,3.0,7.0,58,0.00,,,0.00,0737,Weather View 32 v70,2013-03-19 20:35:00,
2013-03-19 13:40:00,71.2,55.6,30.09,ENE,72,4.0,7.0,58,0.00,,,0.00,0556,Weather View 32 v70,2013-03-19 20:40:00,
2013-03-19 13:50:00,71.6,54.0,30.09,NNW,342,4.0,7.0,54,0.00,,,0.00,0550,Weather View 32 v70,2013-03-19 20:50:00,
2013-03-19 13:58:00,70.9,53.4,30.09,ENE,72,3.0,7.0,54,0.00,,,0.00,0487,Weather View 32 v70,2013-03-19 20:58:00,
2013-03-19 14:05:00,71.8,54.2,30.08,ESE,117,3.0,7.0,54,0.00,,,0.00,0485,Weather View 32 v70,2013-03-19 21:05:00,
2013-03-19 14:10:00,71.9,54.3,30.08,East,94,4.0,7.0,54,0.00,,,0.00,0467,Weather View 32 v70,2013-03-19 21:10:00,
2013-03-19 14:15:00,72.0,54.4,30.08,SSE,162,3.0,10.0,54,0.00,,,0.00,0546,Weather View 32 v70,2013-03-19 21:15:00,
2013-03-19 14:20:00,70.8,52.3,30.08,NW,319,6.0,16.0,52,0.00,,,0.00,0547,Weather View 32 v70,2013-03-19 21:20:00,
2013-03-19 14:30:00,69.9,51.4,30.09,SSW,207,4.0,16.0,52,0.00,,,0.00,0507,Weather View 32 v70,2013-03-19 21:30:00,
2013-03-19 14:35:00,69.4,50.4,30.09,WSW,252,8.0,16.0,51,0.00,,,0.00,0377,Weather View 32 v70,2013-03-19 21:35:00,
2013-03-19 14:45:00,67.9,50.6,30.09,WNW,297,7.0,16.0,54,0.00,,,0.00,0359,Weather View 32 v70,2013-03-19 21:45:00,
2013-03-19 14:50:00,68.0,50.7,30.09,West,274,4.0,16.0,54,0.00,,,0.00,0326,Weather View 32 v70,2013-03-19 21:50:00,
2013-03-19 14:58:00,67.7,51.9,30.09,SW,229,11.0,16.0,57,0.00,,,0.00,0299,Weather View 32 v70,2013-03-19 21:58:00,
2013-03-19 15:05:00,66.9,52.5,30.09,WSW,252,7.0,17.0,60,0.00,,,0.00,0269,Weather View 32 v70,2013-03-19 22:05:00,
2013-03-19 15:10:00,66.4,52.5,30.08,SW,229,16.0,18.0,61,0.00,,,0.00,0245,Weather View 32 v70,2013-03-19 22:10:00,
2013-03-19 15:20:00,66.1,52.2,30.08,West,274,7.0,21.0,61,0.00,,,0.00,0199,Weather View 32 v70,2013-03-19 22:20:00,
2013-03-19 15:30:00,66.3,52.4,30.08,West,274,2.0,21.0,61,0.00,,,0.00,0219,Weather View 32 v70,2013-03-19 22:30:00,
2013-03-19 15:35:00,66.6,52.7,30.09,ESE,117,4.0,21.0,61,0.00,,,0.00,0226,Weather View 32 v70,2013-03-19 22:35:00,
2013-03-19 15:45:00,66.8,52.4,30.08,South,184,1.0,21.0,60,0.00,,,0.00,0230,Weather View 32 v70,2013-03-19 22:45:00,
2013-03-19 15:55:00,67.0,52.6,30.08,SSE,162,1.0,21.0,60,0.00,,,0.00,0253,Weather View 32 v70,2013-03-19 22:55:00,
2013-03-19 16:00:00,67.0,52.2,30.08,SW,229,4.0,21.0,59,0.00,,,0.00,0255,Weather View 32 v70,2013-03-19 23:00:00,
2013-03-19 16:05:00,66.4,51.6,30.09,NW,319,4.0,21.0,59,0.00,,,0.00,0198,Weather View 32 v70,2013-03-19 23:05:00,
2013-03-19 16:10:00,66.0,51.7,30.09,West,274,4.0,21.0,60,0.00,,,0.00,0188,Weather View 32 v70,2013-03-19 23:10:00,
2013-03-19 16:15:00,65.5,50.8,30.09,West,274,7.0,14.0,59,0.00,,,0.00,0172,Weather View 32 v70,2013-03-19 23:15:00,
2013-03-19 16:25:00,63.8,49.6,30.09,West,274,6.0,22.0,60,0.00,,,0.00,0098,Weather View 32 v70,2013-03-19 23:25:00,
2013-03-19 16:30:00,63.1,49.8,30.10,WSW,252,16.0,22.0,62,0.00,,,0.00,0077,Weather View 32 v70,2013-03-19 23:30:00,
2013-03-19 16:35:00,62.8,50.0,30.09,WSW,252,10.0,22.0,63,0.00,,,0.00,0067,Weather View 32 v70,2013-03-19 23:35:00,
2013-03-19 16:45:00,62.0,50.1,30.10,SW,229,11.0,22.0,65,0.00,,,0.00,0047,Weather View 32 v70,2013-03-19 23:45:00,
2013-03-19 16:55:00,61.9,49.6,30.11,SW,229,6.0,22.0,64,0.00,,,0.00,0045,Weather View 32 v70,2013-03-19 23:55:00,
2013-03-19 17:00:00,62.0,49.7,30.11,WSW,252,9.0,22.0,64,0.00,,,0.00,0052,Weather View 32 v70,2013-03-20 00:00:00,
2013-03-19 17:05:00,61.9,48.7,30.11,WSW,252,6.0,22.0,62,0.00,,,0.00,0056,Weather View 32 v70,2013-03-20 00:05:00,
2013-03-19 17:10:00,61.9,48.7,30.11,West,274,4.0,22.0,62,0.00,,,0.00,0065,Weather View 32 v70,2013-03-20 00:10:00,
2013-03-19 17:15:00,62.0,47.9,30.11,WSW,252,10.0,22.0,60,0.00,,,0.00,0070,Weather View 32 v70,2013-03-20 00:15:00,
2013-03-19 17:25:00,62.4,46.9,30.12,NW,319,4.0,22.0,57,0.00,,,0.00,0082,Weather View 32 v70,2013-03-20 00:25:00,
2013-03-19 17:30:00,62.3,45.9,30.13,SW,229,9.0,20.0,55,0.00,,,0.00,0064,Weather View 32 v70,2013-03-20 00:30:00,
2013-03-19 17:35:00,61.8,46.4,30.13,WNW,297,7.0,20.0,57,0.00,,,0.00,0056,Weather View 32 v70,2013-03-20 00:35:00,
2013-03-19 17:40:00,61.4,46.5,30.13,NW,319,7.0,19.0,58,0.00,,,0.00,0048,Weather View 32 v70,2013-03-20 00:40:00,
2013-03-19 17:45:00,61.0,46.5,30.13,West,274,9.0,19.0,59,0.00,,,0.00,0046,Weather View 32 v70,2013-03-20 00:45:00,
2013-03-19 17:55:00,60.6,46.2,30.13,West,274,7.0,19.0,59,0.00,,,0.00,0042,Weather View 32 v70,2013-03-20 00:55:00,
2013-03-19 18:00:00,60.4,46.4,30.13,WNW,297,5.0,16.0,60,0.00,,,0.00,0036,Weather View 32 v70,2013-03-20 01:00:00,
2013-03-19 18:10:00,59.9,46.4,30.13,West,274,3.0,16.0,61,0.00,,,0.00,0024,Weather View 32 v70,2013-03-20 01:10:00,
2013-03-19 18:20:00,58.7,47.7,30.13,SSW,207,7.0,17.0,67,0.00,,,0.00,0026,Weather View 32 v70,2013-03-20 01:20:00,
2013-03-19 18:25:00,58.6,47.7,30.13,WSW,252,6.0,17.0,67,0.00,,,0.00,0024,Weather View 32 v70,2013-03-20 01:25:00,
2013-03-19 18:30:00,58.5,47.2,30.13,SSW,207,9.0,17.0,66,0.00,,,0.00,0020,Weather View 32 v70,2013-03-20 01:30:00,
2013-03-19 18:35:00,58.4,47.1,30.14,SW,229,11.0,17.0,66,0.00,,,0.00,0013,Weather View 32 v70,2013-03-20 01:35:00,
2013-03-19 18:40:00,58.2,46.9,30.14,SW,229,9.0,17.0,66,0.00,,,0.00,0011,Weather View 32 v70,2013-03-20 01:40:00,
2013-03-19 18:50:00,56.9,43.1,30.14,WSW,252,5.0,22.0,60,0.00,,,0.00,0008,Weather View 32 v70,2013-03-20 01:50:00,
2013-03-19 18:55:00,56.2,42.5,30.15,SW,229,13.0,22.0,60,0.00,,,0.00,0007,Weather View 32 v70,2013-03-20 01:55:00,
2013-03-19 19:00:00,55.5,41.8,30.15,SW,229,11.0,22.0,60,0.00,,,0.00,0005,Weather View 32 v70,2013-03-20 02:00:00,
2013-03-19 19:05:00,54.8,42.4,30.15,WSW,252,13.0,22.0,63,0.00,,,0.00,0004,Weather View 32 v70,2013-03-20 02:05:00,
2013-03-19 19:10:00,54.1,43.8,30.15,SSW,207,9.0,22.0,68,0.00,,,0.00,0003,Weather View 32 v70,2013-03-20 02:10:00,
2013-03-19 19:15:00,53.8,44.6,30.15,SSW,207,9.0,22.0,71,0.00,,,0.00,0002,Weather View 32 v70,2013-03-20 02:15:00,
2013-03-19 19:25:00,53.3,45.2,30.15,SSW,207,7.0,22.0,74,0.00,,,0.00,0002,Weather View 32 v70,2013-03-20 02:25:00,
2013-03-19 19:30:00,52.8,45.8,30.14,SSW,207,5.0,22.0,77,0.00,,,0.00,0002,Weather View 32 v70,2013-03-20 02:30:00,
2013-03-19 19:35:00,52.5,46.5,30.14,SSW,207,3.0,22.0,80,0.00,,,0.00,0001,Weather View 32 v70,2013-03-20 02:35:00,
2013-03-19 19:40:00,52.1,47.1,30.15,ESE,117,3.0,22.0,83,0.01,,,0.01,0001,Weather View 32 v70,2013-03-20 02:40:00,
2013-03-19 19:45:00,52.0,47.6,30.15,East,94,1.0,19.0,85,0.01,,,0.01,0001,Weather View 32 v70,2013-03-20 02:45:00,
2013-03-19 19:50:00,51.9,47.8,30.14,NE,49,1.0,19.0,86,0.01,,,0.01,0001,Weather View 32 v70,2013-03-20 02:50:00,
2013-03-19 19:55:00,51.7,47.9,30.14,West,274,1.0,19.0,87,0.01,,,0.01,0001,Weather View 32 v70,2013-03-20 02:55:00,
2013-03-19 20:05:00,50.7,49.0,30.14,WNW,297,3.0,18.0,94,0.02,,,0.02,0002,Weather View 32 v70,2013-03-20 03:05:00,
2013-03-19 20:10:00,50.7,50.2,30.14,SSW,207,1.0,17.0,98,0.02,,,0.02,0001,Weather View 32 v70,2013-03-20 03:10:00,
2013-03-19 20:15:00,50.5,50.5,30.14,South,184,0.0,17.0,100,0.02,,,0.02,0001,Weather View 32 v70,2013-03-20 03:15:00,
2013-03-19 20:20:00,50.3,50.3,30.14,ESE,117,1.0,17.0,100,0.02,,,0.02,0001,Weather View 32 v70,2013-03-20 03:20:00,
2013-03-19 20:25:00,50.1,50.1,30.14,WNW,297,0.0,13.0,100,0.02,,,0.02,0001,Weather View 32 v70,2013-03-20 03:25:00,
2013-03-19 20:35:00,49.9,49.9,30.14,North,4,0.0,8.0,100,0.03,,,0.03,0001,Weather View 32 v70,2013-03-20 03:35:00,
2013-03-19 20:40:00,49.8,49.8,30.14,WNW,297,1.0,5.0,100,0.02,,,0.03,0001,Weather View 32 v70,2013-03-20 03:40:00,
2013-03-19 20:45:00,49.7,49.7,30.14,North,4,2.0,3.0,100,0.02,,,0.03,0001,Weather View 32 v70,2013-03-20 03:45:00,
2013-03-19 20:50:00,49.5,49.5,30.14,NNE,27,0.0,4.0,100,0.02,,,0.03,0001,Weather View 32 v70,2013-03-20 03:50:00,
2013-03-19 20:55:00,49.3,49.3,30.14,WNW,297,3.0,4.0,100,0.03,,,0.04,0002,Weather View 32 v70,2013-03-20 03:55:00,
2013-03-19 21:00:00,49.3,49.3,30.13,NW,319,2.0,4.0,100,0.02,,,0.04,0001,Weather View 32 v70,2013-03-20 04:00:00,
2013-03-19 21:02:00,49.3,49.3,30.13,NW,319,2.0,4.0,100,0.02,,,0.04,0001,Weather View 32 v70,2013-03-20 04:02:00,
2013-03-19 21:05:00,49.4,49.4,30.13,NW,319,1.0,4.0,100,0.02,,,0.04,0002,Weather View 32 v70,2013-03-20 04:05:00,
2013-03-19 21:10:00,49.4,49.4,30.13,NW,319,1.0,4.0,100,0.02,,,0.04,0001,Weather View 32 v70,2013-03-20 04:10:00,
2013-03-19 21:15:00,49.5,49.5,30.13,WSW,252,0.0,4.0,100,0.02,,,0.04,0001,Weather View 32 v70,2013-03-20 04:15:00,
2013-03-19 21:25:00,49.5,49.5,30.12,WSW,252,0.0,4.0,100,0.02,,,0.04,0001,Weather View 32 v70,2013-03-20 04:25:00,
2013-03-19 21:30:00,49.4,49.4,30.12,NW,319,2.0,4.0,100,0.02,,,0.04,0001,Weather View 32 v70,2013-03-20 04:30:00,
2013-03-19 21:35:00,49.5,49.5,30.12,WSW,252,1.0,4.0,100,0.01,,,0.04,0001,Weather View 32 v70,2013-03-20 04:35:00,
2013-03-19 21:40:00,49.3,49.3,30.12,WSW,252,0.0,4.0,100,0.01,,,0.04,0002,Weather View 32 v70,2013-03-20 04:40:00,
2013-03-19 21:45:00,49.1,49.1,30.12,ENE,72,0.0,4.0,100,0.01,,,0.04,0002,Weather View 32 v70,2013-03-20 04:45:00,
2013-03-19 21:50:00,49.1,49.1,30.12,NW,319,1.0,4.0,100,0.01,,,0.04,0001,Weather View 32 v70,2013-03-20 04:50:00,
2013-03-19 21:55:00,49.3,49.3,30.12,SSE,162,0.0,4.0,100,0.00,,,0.04,0001,Weather View 32 v70,2013-03-20 04:55:00,
2013-03-19 22:03:00,49.2,49.2,30.12,SE,139,0.0,3.0,100,0.00,,,0.04,0002,Weather View 32 v70,2013-03-20 05:03:00,
2013-03-19 22:10:00,49.6,49.6,30.13,South,184,0.0,3.0,100,0.00,,,0.04,0001,Weather View 32 v70,2013-03-20 05:10:00,
2013-03-19 22:15:00,49.6,49.6,30.12,SE,139,0.0,3.0,100,0.00,,,0.04,0002,Weather View 32 v70,2013-03-20 05:15:00,
2013-03-19 22:20:00,49.5,49.5,30.12,SSW,207,1.0,3.0,100,0.00,,,0.04,0001,Weather View 32 v70,2013-03-20 05:20:00,
2013-03-19 22:25:00,49.5,49.5,30.12,West,274,0.0,3.0,100,0.00,,,0.04,0001,Weather View 32 v70,2013-03-20 05:25:00,
2013-03-19 22:35:00,49.4,49.4,30.12,South,184,1.0,3.0,100,0.00,,,0.04,0001,Weather View 32 v70,2013-03-20 05:35:00,
2013-03-19 22:45:00,49.5,49.5,30.13,South,184,0.0,2.0,100,0.00,,,0.04,0002,Weather View 32 v70,2013-03-20 05:45:00,
2013-03-19 22:50:00,49.4,49.4,30.13,SSW,207,0.0,2.0,100,0.00,,,0.04,0001,Weather View 32 v70,2013-03-20 05:50:00,
2013-03-19 22:55:00,49.3,49.3,30.13,SSE,162,0.0,2.0,100,0.00,,,0.04,0001,Weather View 32 v70,2013-03-20 05:55:00,
2013-03-19 23:00:00,49.2,49.2,30.13,West,274,0.0,2.0,100,0.00,,,0.04,0001,Weather View 32 v70,2013-03-20 06:00:00,
2013-03-19 23:10:00,49.1,49.1,30.13,WNW,297,0.0,2.0,100,0.00,,,0.04,0002,Weather View 32 v70,2013-03-20 06:10:00,
2013-03-19 23:15:00,49.1,49.1,30.13,WSW,252,0.0,2.0,100,0.00,,,0.04,0002,Weather View 32 v70,2013-03-20 06:15:00,
2013-03-19 23:20:00,49.1,49.1,30.13,SSW,207,0.0,2.0,100,0.00,,,0.04,0001,Weather View 32 v70,2013-03-20 06:20:00,
2013-03-19 23:30:00,49.0,49.0,30.13,SSW,207,1.0,3.0,100,0.00,,,0.04,0001,Weather View 32 v70,2013-03-20 06:30:00,
2013-03-19 23:40:00,49.4,49.4,30.12,SSW,207,4.0,7.0,100,0.00,,,0.04,0001,Weather View 32 v70,2013-03-20 06:40:00,
2013-03-19 23:45:00,49.9,49.9,30.12,SSW,207,3.0,7.0,100,0.00,,,0.04,0002,Weather View 32 v70,2013-03-20 06:45:00,
2013-03-19 23:50:00,50.3,50.3,30.12,SSW,207,4.0,7.0,100,0.00,,,0.04,0002,Weather View 32 v70,2013-03-20 06:50:00,
2013-03-19 23:55:00,50.8,50.8,30.12,SSW,207,4.0,7.0,100,0.00,,,0.04,0001,Weather View 32 v70,2013-03-20 06:55:00,